Time;durP1;ratioP1;P1;durP2;ratioP2;P2;SDS_P1;SDS_P2;PMS_P1;PMS_P2;Temp;Humidity;BMP_temperature;BMP_pressure;BME280_temperature;BME280_humidity;BME280_pressure;Samples;Min_cycle;Max_cycle;Signal;HPM_P1;HPM_P2
2023/06/20 00:02:14;;;;;;;14.63;9.98;;;19.40;99.90;;;;;;5049465;28;20056;-69
2023/06/20 00:04:39;;;;;;;16.00;9.82;;;19.50;99.90;;;;;;5049900;28;20072;-69
2023/06/20 00:07:05;;;;;;;14.75;10.18;;;19.50;99.90;;;;;;5033069;28;20045;-69
2023/06/20 00:09:31;;;;;;;16.90;10.15;;;19.30;99.90;;;;;;5049998;28;20084;-70
2023/06/20 00:11:56;;;;;;;15.90;10.82;;;19.40;99.90;;;;;;5050285;28;20033;-69
2023/06/20 00:14:22;;;;;;;17.98;10.90;;;19.20;99.90;;;;;;5050194;28;20033;-68
2023/06/20 00:16:48;;;;;;;16.60;10.48;;;19.20;99.90;;;;;;5032664;28;20079;-69
2023/06/20 00:19:13;;;;;;;18.48;12.13;;;19.70;99.90;;;;;;5050276;28;20041;-70
2023/06/20 00:21:39;;;;;;;14.25;10.25;;;19.10;99.90;;;;;;5033780;28;20157;-69
2023/06/20 00:24:09;;;;;;;15.10;10.88;;;19.20;99.90;;;;;;5049983;28;20124;-69
2023/06/20 00:26:38;;;;;;;15.15;10.65;;;19.10;99.90;;;;;;5049450;28;20052;-68
2023/06/20 00:29:04;;;;;;;16.10;11.43;;;19.00;99.90;;;;;;5051121;28;20051;-69
2023/06/20 00:31:30;;;;;;;11.85;9.88;;;19.00;99.90;;;;;;5049831;28;20073;-69
2023/06/20 00:33:55;;;;;;;17.98;10.90;;;19.10;99.90;;;;;;5051352;28;20481;-69
2023/06/20 00:36:25;;;;;;;16.80;11.88;;;18.90;99.90;;;;;;5050821;28;20040;-68
2023/06/20 00:38:51;;;;;;;17.02;11.48;;;19.60;99.90;;;;;;5049704;28;20102;-69
2023/06/20 00:41:20;;;;;;;16.00;10.93;;;19.00;99.90;;;;;;5051740;28;20052;-69
2023/06/20 00:43:47;;;;;;;16.45;10.93;;;19.00;99.90;;;;;;5053552;28;20044;-69
2023/06/20 00:46:17;;;;;;;22.83;13.20;;;18.90;99.90;;;;;;5053039;28;20514;-69
2023/06/20 00:48:43;;;;;;;18.98;12.45;;;19.50;99.90;;;;;;5053549;28;20094;-69
2023/06/20 00:51:09;;;;;;;19.60;13.32;;;19.50;99.90;;;;;;5053504;28;20037;-69
2023/06/20 00:53:35;;;;;;;16.83;11.38;;;20.00;99.90;;;;;;5053428;28;20071;-69
2023/06/20 00:56:03;;;;;;;16.73;13.20;;;18.90;99.90;;;;;;5052980;28;20063;-70
2023/06/20 00:58:28;;;;;;;19.95;14.05;;;18.90;99.90;;;;;;5053717;28;20038;-69
2023/06/20 01:00:54;;;;;;;20.10;13.48;;;19.00;99.90;;;;;;5037034;28;20565;-69
2023/06/20 01:03:20;;;;;;;14.27;11.40;;;19.50;99.90;;;;;;5054613;28;20500;-68
2023/06/20 01:05:56;;;;;;;15.77;12.32;;;19.00;99.90;;;;;;5053210;28;20032;-69
2023/06/20 01:08:39;;;;;;;16.83;12.10;;;19.00;99.90;;;;;;5036286;28;20560;-68
2023/06/20 01:11:20;;;;;;;18.70;12.15;;;19.40;99.90;;;;;;5053102;28;20119;-69
2023/06/20 01:14:15;;;;;;;16.90;12.50;;;18.90;99.90;;;;;;5053236;28;20037;-69
2023/06/20 01:16:43;;;;;;;16.67;12.18;;;19.00;99.90;;;;;;5052686;28;20086;-69
2023/06/20 01:19:41;;;;;;;18.63;11.55;;;19.00;99.90;;;;;;5053033;28;20044;-69
2023/06/20 01:22:28;;;;;;;18.15;12.13;;;19.10;99.90;;;;;;5053060;28;20047;-70
2023/06/20 01:24:58;;;;;;;19.67;13.85;;;18.90;99.90;;;;;;5052944;28;20045;-69
2023/06/20 01:27:33;;;;;;;20.63;12.73;;;19.00;99.90;;;;;;5052350;28;20049;-69
2023/06/20 01:30:15;;;;;;;14.93;11.57;;;19.20;99.90;;;;;;5052661;28;20504;-69
2023/06/20 01:32:46;;;;;;;19.60;13.18;;;18.90;99.90;;;;;;5053098;28;20505;-69
2023/06/20 01:35:15;;;;;;;14.32;11.43;;;19.30;99.90;;;;;;5052820;28;20037;-69
2023/06/20 01:37:43;;;;;;;16.88;13.15;;;19.10;99.90;;;;;;5052387;28;20041;-69
2023/06/20 01:40:13;;;;;;;19.50;13.43;;;19.10;99.90;;;;;;5053560;28;20041;-69
2023/06/20 01:42:41;;;;;;;17.80;14.07;;;19.90;99.90;;;;;;5052750;28;20565;-69
2023/06/20 01:45:10;;;;;;;20.40;13.43;;;19.80;99.90;;;;;;5052600;28;20054;-69
2023/06/20 01:47:38;;;;;;;20.90;13.90;;;19.00;99.90;;;;;;5053635;28;20072;-70
2023/06/20 01:50:06;;;;;;;16.90;13.75;;;18.70;99.90;;;;;;5052130;28;20048;-69
2023/06/20 01:52:34;;;;;;;18.77;13.57;;;18.90;99.90;;;;;;5052086;28;20520;-70
2023/06/20 01:55:04;;;;;;;22.48;14.00;;;19.80;99.90;;;;;;5053292;28;20053;-70
2023/06/20 01:57:31;;;;;;;21.15;12.35;;;18.60;99.90;;;;;;5051821;28;20052;-69
2023/06/20 01:59:57;;;;;;;17.77;11.60;;;18.90;99.90;;;;;;5051976;28;20037;-69
2023/06/20 02:02:24;;;;;;;19.67;12.82;;;20.00;99.90;;;;;;5054318;28;20049;-69
2023/06/20 02:04:50;;;;;;;19.27;12.93;;;18.70;99.90;;;;;;5052244;28;20532;-69
2023/06/20 02:07:17;;;;;;;20.85;12.80;;;18.80;99.90;;;;;;5052763;28;20485;-69
2023/06/20 02:09:44;;;;;;;16.63;11.63;;;19.10;99.90;;;;;;5052112;28;20413;-69
2023/06/20 02:12:11;;;;;;;15.52;11.95;;;19.30;99.90;;;;;;5035371;28;20056;-69
2023/06/20 02:14:38;;;;;;;18.05;13.52;;;18.70;99.90;;;;;;5051858;28;20493;-69
2023/06/20 02:17:05;;;;;;;13.27;11.40;;;19.10;99.90;;;;;;5052584;28;20029;-69
2023/06/20 02:19:31;;;;;;;18.92;11.95;;;19.20;99.90;;;;;;5051651;28;20068;-70
2023/06/20 02:21:57;;;;;;;15.73;11.32;;;19.40;99.90;;;;;;5051699;28;20417;-69
2023/06/20 02:24:26;;;;;;;16.83;11.07;;;18.90;99.90;;;;;;5051694;28;20048;-69
2023/06/20 02:26:54;;;;;;;17.38;12.10;;;18.80;99.90;;;;;;5051199;28;20048;-69
2023/06/20 02:29:24;;;;;;;23.02;13.27;;;18.80;99.90;;;;;;5051428;28;20044;-69
2023/06/20 02:31:51;;;;;;;15.85;11.25;;;19.00;99.90;;;;;;5051589;28;20060;-69
2023/06/20 02:34:21;;;;;;;14.52;11.55;;;18.80;99.90;;;;;;5051584;28;20047;-69
2023/06/20 02:36:48;;;;;;;17.50;11.38;;;18.60;99.90;;;;;;5051097;28;20052;-70
2023/06/20 02:39:14;;;;;;;18.20;10.93;;;18.90;99.90;;;;;;5051484;28;20095;-69
2023/06/20 02:41:43;;;;;;;15.52;10.75;;;18.70;99.90;;;;;;5051415;28;20462;-69
2023/06/20 02:44:09;;;;;;;15.60;11.45;;;18.80;99.90;;;;;;5051297;28;20052;-70
2023/06/20 02:46:43;;;;;;;12.55;9.77;;;19.00;99.90;;;;;;5050827;28;20041;-69
2023/06/20 02:49:30;;;;;;;15.90;11.32;;;19.00;99.90;;;;;;5051088;28;20678;-69
2023/06/20 02:52:24;;;;;;;13.13;10.73;;;18.60;99.90;;;;;;5051205;28;20037;-70
2023/06/20 02:55:01;;;;;;;14.10;10.02;;;18.50;99.90;;;;;;5051391;28;20037;-69
2023/06/20 02:57:28;;;;;;;16.50;11.02;;;18.80;99.90;;;;;;5034097;28;20041;-69
2023/06/20 03:00:01;;;;;;;14.35;10.10;;;19.60;99.90;;;;;;5051162;28;20412;-69
2023/06/20 03:02:30;;;;;;;;;;;18.70;99.90;;;;;;5051648;28;20044;-69
2023/06/20 03:05:00;;;;;;;12.38;9.60;;;18.50;99.90;;;;;;5051441;28;19936;-70
2023/06/20 03:07:28;;;;;;;16.38;9.95;;;18.60;99.90;;;;;;5050516;28;20040;-69
2023/06/20 03:09:55;;;;;;;15.45;10.32;;;19.00;99.90;;;;;;5050950;28;20040;-69
2023/06/20 03:12:21;;;;;;;12.10;10.07;;;18.60;99.90;;;;;;5050803;28;20128;-69
2023/06/20 03:14:47;;;;;;;12.68;9.70;;;18.70;99.90;;;;;;5051204;28;20072;-69
2023/06/20 03:17:13;;;;;;;14.30;9.02;;;19.10;99.90;;;;;;5050996;28;20087;-70
2023/06/20 03:19:39;;;;;;;12.38;9.32;;;18.90;99.90;;;;;;5050662;28;20040;-70
2023/06/20 03:22:04;;;;;;;14.05;8.80;;;19.40;99.90;;;;;;5033983;28;20520;-69
2023/06/20 03:24:30;;;;;;;14.55;8.48;;;18.70;99.90;;;;;;5050572;28;20040;-69
2023/06/20 03:26:56;;;;;;;12.45;9.05;;;19.50;99.90;;;;;;5050041;28;20504;-69
2023/06/20 03:29:21;;;;;;;12.48;9.07;;;18.90;99.90;;;;;;5050342;28;20512;-69
2023/06/20 03:31:47;;;;;;;14.70;8.80;;;18.70;99.90;;;;;;5050527;28;20033;-70
2023/06/20 03:34:12;;;;;;;11.48;8.18;;;18.60;99.90;;;;;;5050492;28;20082;-69
2023/06/20 03:36:38;;;;;;;11.82;8.57;;;18.70;99.90;;;;;;5051188;28;20135;-70
2023/06/20 03:39:04;;;;;;;13.25;9.55;;;18.60;99.90;;;;;;5051724;28;20091;-70
2023/06/20 03:41:29;;;;;;;13.77;8.27;;;19.10;99.90;;;;;;5051971;28;20041;-70
2023/06/20 03:43:55;;;;;;;13.90;8.73;;;18.90;99.90;;;;;;5050497;28;20444;-69
2023/06/20 03:46:20;;;;;;;14.63;9.27;;;18.70;99.90;;;;;;5049867;28;20051;-70
2023/06/20 03:48:46;;;;;;;11.93;9.05;;;18.80;99.90;;;;;;5050202;28;20041;-69
2023/06/20 03:51:12;;;;;;;15.70;8.98;;;18.70;99.90;;;;;;5050369;28;20048;-69
2023/06/20 03:53:37;;;;;;;10.35;7.80;;;19.00;99.90;;;;;;5050294;28;20083;-69
2023/06/20 03:56:03;;;;;;;11.18;8.82;;;19.70;99.90;;;;;;5049798;28;20084;-69
2023/06/20 03:58:28;;;;;;;13.00;9.13;;;18.70;99.90;;;;;;5050245;28;20041;-69
2023/06/20 04:00:54;;;;;;;11.77;8.75;;;19.00;99.90;;;;;;5050267;28;20040;-70
2023/06/20 04:03:20;;;;;;;10.82;8.02;;;19.00;99.90;;;;;;5050169;28;20110;-68
2023/06/20 04:05:45;;;;;;;12.05;8.80;;;18.80;99.90;;;;;;5050115;28;20069;-70
2023/06/20 04:08:11;;;;;;;12.07;8.63;;;18.70;99.90;;;;;;5049862;28;20041;-69
2023/06/20 04:10:37;;;;;;;12.10;8.88;;;19.00;99.90;;;;;;5049985;28;20041;-69
2023/06/20 04:13:03;;;;;;;8.93;7.30;;;19.80;99.90;;;;;;5050229;28;20443;-70
2023/06/20 04:15:29;;;;;;;12.70;8.75;;;19.20;99.90;;;;;;5051233;28;20037;-70
2023/06/20 04:17:55;;;;;;;13.05;8.75;;;19.50;99.90;;;;;;5053067;28;20211;-69
2023/06/20 04:20:20;;;;;;;11.98;9.32;;;19.30;99.90;;;;;;5054109;28;20412;-70
2023/06/20 04:22:46;;;;;;;12.77;8.07;;;19.20;99.90;;;;;;5054243;28;20091;-69
2023/06/20 04:25:15;;;;;;;11.27;8.70;;;18.90;99.90;;;;;;5055277;28;20052;-69
2023/06/20 04:27:41;;;;;;;11.98;8.23;;;19.10;99.90;;;;;;5053382;28;20033;-69
2023/06/20 04:30:07;;;;;;;14.40;8.50;;;19.00;99.90;;;;;;5053972;28;20048;-69
2023/06/20 04:32:33;;;;;;;11.45;8.20;;;19.10;99.90;;;;;;5053891;28;20086;-69
2023/06/20 04:34:59;;;;;;;9.93;7.47;;;20.60;99.90;;;;;;5053826;28;20037;-69
2023/06/20 04:37:25;;;;;;;11.77;7.82;;;19.20;99.90;;;;;;5054589;28;20114;-69
2023/06/20 04:39:50;;;;;;;11.95;7.80;;;19.30;99.90;;;;;;5053524;28;20389;-70
2023/06/20 04:42:16;;;;;;;10.02;8.25;;;19.30;99.90;;;;;;5053691;28;20505;-70
2023/06/20 04:44:44;;;;;;;12.45;9.13;;;19.30;99.90;;;;;;5053641;28;20051;-69
2023/06/20 04:47:12;;;;;;;10.90;7.38;;;19.10;99.90;;;;;;5053069;28;20045;-69
2023/06/20 04:49:40;;;;;;;11.23;8.07;;;19.30;99.90;;;;;;5053642;28;20396;-69
2023/06/20 04:52:06;;;;;;;12.88;8.30;;;19.10;99.90;;;;;;5053168;28;20140;-69
2023/06/20 04:54:31;;;;;;;13.85;7.82;;;19.40;99.90;;;;;;5053476;28;20041;-70
2023/06/20 04:56:57;;;;;;;10.50;7.85;;;19.30;99.90;;;;;;5053104;28;20128;-69
2023/06/20 04:59:22;;;;;;;9.90;8.27;;;19.20;99.90;;;;;;5053436;28;20033;-69
2023/06/20 05:01:51;;;;;;;10.68;8.05;;;19.40;99.90;;;;;;5053387;28;20500;-69
2023/06/20 05:04:17;;;;;;;11.75;9.10;;;19.40;99.90;;;;;;5036544;28;20044;-69
2023/06/20 05:06:44;;;;;;;15.07;9.40;;;19.40;99.90;;;;;;5052762;28;20044;-69
2023/06/20 05:09:09;;;;;;;11.30;8.98;;;19.40;99.90;;;;;;5036626;28;20413;-69
2023/06/20 05:11:35;;;;;;;15.30;9.18;;;19.50;99.90;;;;;;5053141;28;20041;-69
2023/06/20 05:14:00;;;;;;;10.93;8.13;;;19.80;99.90;;;;;;5054360;28;20048;-69
2023/06/20 05:16:26;;;;;;;11.88;8.82;;;19.60;99.90;;;;;;5053677;28;20037;-69
2023/06/20 05:18:51;;;;;;;13.35;9.48;;;19.60;99.90;;;;;;5054038;28;20489;-69
2023/06/20 05:21:17;;;;;;;12.93;8.93;;;19.50;99.90;;;;;;5054463;28;20037;-69
2023/06/20 05:23:43;;;;;;;9.52;7.63;;;19.90;99.90;;;;;;5054313;28;20090;-69
2023/06/20 05:26:08;;;;;;;10.77;8.23;;;19.60;99.90;;;;;;5053670;28;20501;-70
2023/06/20 05:28:34;;;;;;;16.13;9.60;;;20.40;99.90;;;;;;5051562;28;20409;-70
2023/06/20 05:30:59;;;;;;;10.57;8.57;;;19.60;99.90;;;;;;5052702;28;20126;-69
2023/06/20 05:33:25;;;;;;;12.77;8.82;;;19.60;99.90;;;;;;5052582;28;20110;-69
2023/06/20 05:35:51;;;;;;;12.52;9.27;;;19.80;99.90;;;;;;5052526;28;20040;-69
2023/06/20 05:38:17;;;;;;;14.13;9.35;;;20.20;99.90;;;;;;5035597;28;20037;-70
2023/06/20 05:40:43;;;;;;;11.63;8.68;;;19.80;99.90;;;;;;5053724;28;20037;-69
2023/06/20 05:43:08;;;;;;;15.88;8.73;;;19.60;99.90;;;;;;5052520;28;20044;-69
2023/06/20 05:45:34;;;;;;;13.38;9.60;;;19.90;99.90;;;;;;5052398;28;20130;-69
2023/06/20 05:47:59;;;;;;;13.30;8.68;;;19.50;99.90;;;;;;5052151;28;20045;-69
2023/06/20 05:50:25;;;;;;;15.98;8.82;;;19.70;99.90;;;;;;5052109;28;20045;-69
2023/06/20 05:52:51;;;;;;;15.60;9.70;;;19.90;99.90;;;;;;5035853;28;20041;-70
2023/06/20 05:55:18;;;;;;;17.35;9.93;;;19.70;99.90;;;;;;5052198;28;20041;-70
2023/06/20 05:57:43;;;;;;;15.32;8.75;;;19.80;99.90;;;;;;5051980;28;20179;-70
2023/06/20 06:00:12;;;;;;;18.67;10.70;;;20.20;99.90;;;;;;5052017;28;20126;-70
2023/06/20 06:02:41;;;;;;;14.88;9.63;;;19.90;99.90;;;;;;5051691;28;20119;-70
2023/06/20 06:05:07;;;;;;;15.18;9.48;;;20.00;99.90;;;;;;5052160;28;20115;-70
2023/06/20 06:07:32;;;;;;;18.27;11.00;;;20.10;99.90;;;;;;5051819;28;20508;-69
2023/06/20 06:09:58;;;;;;;11.40;9.02;;;20.90;99.90;;;;;;5051942;28;20132;-69
2023/06/20 06:12:23;;;;;;;10.57;9.20;;;20.30;99.90;;;;;;5051986;28;20421;-69
2023/06/20 06:14:51;;;;;;;11.73;9.63;;;20.60;99.90;;;;;;5051831;28;20040;-70
2023/06/20 06:17:17;;;;;;;13.35;8.82;;;20.60;99.90;;;;;;5051339;28;20047;-69
2023/06/20 06:19:42;;;;;;;11.43;9.13;;;20.90;99.90;;;;;;5051660;28;20037;-69
2023/06/20 06:22:08;;;;;;;13.27;9.55;;;21.20;99.90;;;;;;5051837;28;20477;-69
2023/06/20 06:24:33;;;;;;;12.20;8.40;;;21.10;99.90;;;;;;5051768;28;20124;-69
2023/06/20 06:26:59;;;;;;;16.23;9.23;;;21.40;99.90;;;;;;5051278;28;20045;-69
2023/06/20 06:29:26;;;;;;;10.13;8.73;;;21.50;99.90;;;;;;5051399;28;20471;-70
2023/06/20 06:31:53;;;;;;;14.27;8.80;;;22.20;99.90;;;;;;5051553;28;20049;-69
2023/06/20 06:34:18;;;;;;;11.13;8.57;;;21.60;99.90;;;;;;5034974;28;20033;-70
2023/06/20 06:36:49;;;;;;;15.02;9.52;;;21.50;99.90;;;;;;5052383;28;20112;-69
2023/06/20 06:39:16;;;;;;;11.75;8.98;;;21.50;99.90;;;;;;5051066;28;20100;-69
2023/06/20 06:41:44;;;;;;;12.00;8.63;;;21.50;99.90;;;;;;5051462;28;20535;-69
2023/06/20 06:44:11;;;;;;;12.57;9.40;;;21.60;99.90;;;;;;5051649;28;20051;-70
2023/06/20 06:46:37;;;;;;;11.07;8.63;;;21.60;99.90;;;;;;5034410;28;20127;-70
2023/06/20 06:49:02;;;;;;;13.00;9.95;;;21.70;99.90;;;;;;5052631;28;20063;-70
2023/06/20 06:51:28;;;;;;;10.98;8.55;;;21.30;99.90;;;;;;5051400;28;20041;-69
2023/06/20 06:53:54;;;;;;;11.57;9.25;;;21.60;99.90;;;;;;5051375;28;20029;-70
2023/06/20 06:56:19;;;;;;;14.75;10.20;;;21.40;99.90;;;;;;5053481;28;20045;-70
2023/06/20 06:58:45;;;;;;;11.77;8.68;;;21.30;99.90;;;;;;5056357;28;20045;-70
2023/06/20 07:01:10;;;;;;;12.27;9.90;;;21.40;99.90;;;;;;5055089;28;20099;-70
2023/06/20 07:03:36;;;;;;;14.30;9.70;;;21.40;99.90;;;;;;5036961;28;20122;-70
2023/06/20 07:06:02;;;;;;;13.77;9.02;;;21.70;99.90;;;;;;5054210;28;20412;-67
2023/06/20 07:08:27;;;;;;;11.02;9.55;;;21.80;99.90;;;;;;5054007;28;20041;-70
2023/06/20 07:10:53;;;;;;;12.57;9.10;;;21.60;99.90;;;;;;5052010;28;20064;-69
2023/06/20 07:13:18;;;;;;;12.68;9.85;;;22.10;99.90;;;;;;5052197;28;20068;-70
2023/06/20 07:15:44;;;;;;;13.95;10.18;;;22.20;99.90;;;;;;5051552;28;20028;-70
2023/06/20 07:18:09;;;;;;;13.13;9.90;;;21.90;99.90;;;;;;5051571;28;20041;-70
2023/06/20 07:20:35;;;;;;;12.40;9.98;;;22.10;99.90;;;;;;5051446;28;20029;-70
2023/06/20 07:23:00;;;;;;;11.23;9.02;;;22.00;99.90;;;;;;5052026;28;20082;-68
2023/06/20 07:25:26;;;;;;;14.95;9.90;;;22.00;99.90;;;;;;5051605;28;20041;-70
2023/06/20 07:27:52;;;;;;;18.23;10.10;;;22.00;99.90;;;;;;5051130;28;20454;-70
2023/06/20 07:30:17;;;;;;;13.52;10.25;;;22.00;99.90;;;;;;5051464;28;20037;-70
2023/06/20 07:32:43;;;;;;;14.38;9.60;;;21.80;99.90;;;;;;5051395;28;20052;-70
2023/06/20 07:35:09;;;;;;;13.52;9.85;;;21.90;99.90;;;;;;5051097;28;20044;-70
2023/06/20 07:37:34;;;;;;;15.43;10.18;;;21.90;99.90;;;;;;5050954;28;20036;-69
2023/06/20 07:40:00;;;;;;;14.00;9.68;;;21.90;99.90;;;;;;5050937;28;20041;-70
2023/06/20 07:42:26;;;;;;;13.55;9.00;;;21.90;99.90;;;;;;5051216;28;20409;-70
2023/06/20 07:44:51;;;;;;;13.30;10.27;;;21.90;99.90;;;;;;5051430;28;20047;-70
2023/06/20 07:47:17;;;;;;;11.25;9.80;;;22.00;99.90;;;;;;5034108;28;20045;-70
2023/06/20 07:49:43;;;;;;;10.23;8.63;;;22.10;99.90;;;;;;5051103;28;20041;-70
2023/06/20 07:52:09;;;;;;;12.75;10.13;;;22.10;99.90;;;;;;5050482;28;20500;-69
2023/06/20 07:54:35;;;;;;;17.85;10.88;;;22.20;99.90;;;;;;5051310;28;20045;-70
2023/06/20 07:57:00;;;;;;;15.15;9.70;;;22.30;99.90;;;;;;5052129;28;20507;-70
2023/06/20 07:59:26;;;;;;;12.50;10.00;;;22.20;99.90;;;;;;5051001;28;20040;-70
2023/06/20 08:01:51;;;;;;;19.00;10.45;;;22.20;99.90;;;;;;5050939;28;20036;-70
2023/06/20 08:04:17;;;;;;;12.05;10.27;;;22.80;99.90;;;;;;5050894;28;20041;-70
2023/06/20 08:06:42;;;;;;;17.27;10.60;;;22.20;99.90;;;;;;5051739;28;20045;-70
2023/06/20 08:09:08;;;;;;;15.02;10.00;;;22.50;99.90;;;;;;5050967;28;20079;-70
2023/06/20 08:11:34;;;;;;;12.48;9.13;;;22.60;99.90;;;;;;5050938;28;20552;-70
2023/06/20 08:14:00;;;;;;;13.35;9.18;;;22.50;99.90;;;;;;5051277;28;20040;-70
2023/06/20 08:16:25;;;;;;;12.27;10.30;;;22.70;99.90;;;;;;5051557;28;20515;-70
2023/06/20 08:18:51;;;;;;;13.48;9.38;;;23.20;99.90;;;;;;5052168;28;20033;-70
2023/06/20 08:21:16;;;;;;;15.45;10.73;;;23.30;99.90;;;;;;5050643;28;20049;-70
2023/06/20 08:23:44;;;;;;;11.52;9.23;;;23.20;99.90;;;;;;5050965;28;20041;-70
2023/06/20 08:26:09;;;;;;;27.27;12.48;;;23.40;99.90;;;;;;5050465;28;20056;-70
2023/06/20 08:28:35;;;;;;;13.57;10.48;;;23.60;99.90;;;;;;5051422;28;20041;-70
2023/06/20 08:31:02;;;;;;;11.85;9.40;;;23.60;99.90;;;;;;5051078;28;20100;-70
2023/06/20 08:33:27;;;;;;;12.73;9.70;;;24.20;99.90;;;;;;5050883;28;20408;-69
2023/06/20 08:35:54;;;;;;;12.80;9.98;;;23.90;99.90;;;;;;5050769;28;20041;-70
2023/06/20 08:38:19;;;;;;;11.45;8.63;;;23.90;99.90;;;;;;5051655;28;20540;-70
2023/06/20 08:40:45;;;;;;;12.63;10.75;;;23.80;99.90;;;;;;5052021;28;20151;-69
2023/06/20 08:43:18;;;;;;;11.30;9.50;;;23.70;99.90;;;;;;5051900;28;20040;-69
2023/06/20 08:45:44;;;;;;;12.00;9.52;;;23.80;99.90;;;;;;5050997;28;20124;-70
2023/06/20 08:48:10;;;;;;;13.80;10.68;;;23.50;99.90;;;;;;5032795;28;20045;-69
2023/06/20 08:50:37;;;;;;;10.73;9.52;;;23.70;99.90;;;;;;5050746;28;20288;-69
2023/06/20 08:53:05;;;;;;;13.50;9.02;;;23.70;99.90;;;;;;5049932;28;20044;-69
2023/06/20 08:55:32;;;;;;;12.25;9.00;;;23.80;99.90;;;;;;5032989;28;20541;-69
2023/06/20 08:57:58;;;;;;;9.30;7.68;;;23.80;99.90;;;;;;5050638;28;20079;-69
2023/06/20 09:00:23;;;;;;;11.35;9.05;;;24.10;99.90;;;;;;5049425;28;20037;-69
2023/06/20 09:02:53;;;;;;;13.88;9.10;;;24.40;99.90;;;;;;5052363;28;20101;-69
2023/06/20 09:05:20;;;;;;;18.35;8.38;;;24.50;99.90;;;;;;5053440;28;20037;-69
2023/06/20 09:07:46;;;;;;;13.05;8.88;;;24.60;99.90;;;;;;5052720;28;20055;-69
2023/06/20 09:10:14;;;;;;;9.43;8.07;;;24.80;99.90;;;;;;5053281;28;20098;-69
2023/06/20 09:12:50;;;;;;;9.38;8.13;;;24.80;99.90;;;;;;5053099;28;20033;-69
2023/06/20 09:15:21;;;;;;;11.30;8.75;;;25.00;99.90;;;;;;5052925;28;20033;-69
2023/06/20 09:17:55;;;;;;;14.00;8.60;;;25.00;99.90;;;;;;5053192;28;20041;-70
2023/06/20 09:20:25;;;;;;;12.20;8.30;;;24.80;99.90;;;;;;5054233;28;20037;-69
2023/06/20 09:22:50;;;;;;;10.10;8.15;;;24.90;99.90;;;;;;5053242;28;20071;-70
2023/06/20 09:25:24;;;;;;;10.27;8.05;;;24.80;99.90;;;;;;5053152;28;20041;-69
2023/06/20 09:27:50;;;;;;;10.35;8.50;;;24.90;99.90;;;;;;5052502;28;20102;-70
2023/06/20 09:30:16;;;;;;;10.27;7.93;;;24.90;99.90;;;;;;5052855;28;20118;-69
2023/06/20 09:32:42;;;;;;;9.88;7.65;;;25.00;99.90;;;;;;5052895;28;20497;-70
2023/06/20 09:35:10;;;;;;;11.73;8.15;;;25.30;99.90;;;;;;5036228;28;20075;-70
2023/06/20 09:37:41;;;;;;;8.90;8.00;;;25.60;99.90;;;;;;5035658;28;20102;-70
2023/06/20 09:40:11;;;;;;;10.80;7.82;;;25.40;99.90;;;;;;5052514;28;20084;-71
2023/06/20 09:42:43;;;;;;;8.50;7.55;;;25.30;99.90;;;;;;5052670;28;20516;-70
2023/06/20 09:45:10;;;;;;;8.73;7.80;;;25.20;99.90;;;;;;5052747;28;20504;-70
2023/06/20 09:47:37;;;;;;;10.77;7.68;;;25.30;99.90;;;;;;5052057;28;20037;-69
2023/06/20 09:50:15;;;;;;;12.13;8.65;;;25.50;99.90;;;;;;5053142;28;20067;-69
2023/06/20 09:52:42;;;;;;;9.00;7.25;;;25.60;99.90;;;;;;5052410;28;20059;-70
2023/06/20 09:55:15;;;;;;;9.88;8.18;;;25.70;99.90;;;;;;5035743;28;20044;-70
2023/06/20 09:57:53;;;;;;;8.73;6.78;;;25.90;99.90;;;;;;5051851;28;20551;-70
2023/06/20 10:00:19;;;;;;;9.25;7.97;;;26.20;99.90;;;;;;5035491;28;20044;-68
2023/06/20 10:02:49;;;;;;;10.20;9.10;;;26.00;99.90;;;;;;5052197;28;20485;-70
2023/06/20 10:05:20;;;;;;;8.73;7.60;;;26.30;99.90;;;;;;5052147;28;20127;-69
2023/06/20 10:07:47;;;;;;;8.95;8.05;;;26.20;99.90;;;;;;5053024;28;20041;-71
2023/06/20 10:10:15;;;;;;;12.27;8.18;;;26.50;99.90;;;;;;5052138;28;20045;-69
2023/06/20 10:12:43;;;;;;;11.43;8.02;;;26.60;99.90;;;;;;5052228;28;20094;-70
2023/06/20 10:15:09;;;;;;;10.52;7.85;;;26.60;99.90;;;;;;5034879;28;20037;-69
2023/06/20 10:17:40;;;;;;;8.73;7.82;;;26.70;99.90;;;;;;5052689;28;20037;-70
2023/06/20 10:20:07;;;;;;;8.43;7.57;;;26.70;99.90;;;;;;5051969;28;20125;-69
2023/06/20 10:22:38;;;;;;;8.85;7.95;;;26.50;99.90;;;;;;5051964;28;20423;-70
2023/06/20 10:25:14;;;;;;;8.90;7.95;;;26.60;99.90;;;;;;5052048;28;20087;-69
2023/06/20 10:28:09;;;;;;;9.13;8.18;;;26.70;99.90;;;;;;5052942;28;20045;-70
2023/06/20 10:30:48;;;;;;;8.43;6.80;;;26.70;99.90;;;;;;5040485;28;20053;-70
2023/06/20 10:33:18;;;;;;;8.07;6.88;;;;;;;;;;5051857;28;20045;-70
2023/06/20 10:35:55;;;;;;;7.75;6.53;;;;;;;;;;5051791;28;20041;-70
2023/06/20 10:38:21;;;;;;;8.98;6.03;;;;;;;;;;5052385;28;20049;-70
2023/06/20 10:40:47;;;;;;;8.13;6.25;;;;;;;;;;5051822;28;20048;-70
2023/06/20 10:43:17;;;;;;;10.57;6.75;;;;;;;;;;5051607;28;20397;-70
2023/06/20 10:45:53;;;;;;;9.88;6.60;;;;;;;;;;5051291;28;20051;-70
2023/06/20 10:48:22;;;;;;;7.15;6.40;;;;;;;;;;5052228;28;20037;-71
2023/06/20 10:50:48;;;;;;;17.20;8.02;;;;;;;;;;5051615;28;20141;-70
2023/06/20 10:53:14;;;;;;;7.90;6.68;;;;;;;;;;5035208;28;20076;-71
2023/06/20 10:55:41;;;;;;;6.82;6.00;;;;;;;;;;5052611;28;20194;-71
2023/06/20 10:58:07;;;;;;;6.07;5.32;;;;;;;;;;5034404;28;20473;-70
2023/06/20 11:00:33;;;;;;;11.18;6.35;;;;;;;;;;5052204;28;20123;-70
2023/06/20 11:02:59;;;;;;;6.57;5.97;;;;;;;;;;5051288;28;20043;-71
2023/06/20 11:05:26;;;;;;;6.55;5.90;;;;;;;;;;5034306;28;20037;-71
2023/06/20 11:07:53;;;;;;;5.78;5.28;;;;;;;;;;5050694;28;20075;-70
2023/06/20 11:10:20;;;;;;;9.80;5.78;;;28.00;99.90;;;;;;5034031;28;20037;-71
2023/06/20 11:12:46;;;;;;;8.23;5.55;;;28.00;99.90;;;;;;5050851;28;20409;-70
2023/06/20 11:15:22;;;;;;;5.90;5.05;;;28.20;99.90;;;;;;5050800;28;20041;-71
2023/06/20 11:17:49;;;;;;;6.13;5.50;;;27.90;99.90;;;;;;5051843;28;20374;-70
2023/06/20 11:20:18;;;;;;;8.68;4.90;;;28.00;99.90;;;;;;5034951;28;20041;-70
2023/06/20 11:22:48;;;;;;;6.45;4.88;;;28.10;99.90;;;;;;5051703;28;20045;-71
2023/06/20 11:25:34;;;;;;;8.18;5.53;;;28.10;99.90;;;;;;5052457;28;20045;-71
2023/06/20 11:28:05;;;;;;;6.03;4.78;;;28.20;99.90;;;;;;5051039;28;20116;-72
2023/06/20 11:30:32;;;;;;;10.60;5.00;;;28.30;99.90;;;;;;5051055;28;20040;-70
2023/06/20 11:33:03;;;;;;;6.80;5.20;;;27.70;99.90;;;;;;5051119;28;20049;-70
2023/06/20 11:35:47;;;;;;;5.72;4.95;;;28.10;99.90;;;;;;5051151;28;20049;-70
2023/06/20 11:38:16;;;;;;;5.63;5.13;;;28.10;99.90;;;;;;5052106;28;20052;-70
2023/06/20 11:40:43;;;;;;;7.10;4.70;;;28.30;99.90;;;;;;5051211;28;20401;-71
2023/06/20 11:43:27;;;;;;;8.02;5.38;;;28.40;99.90;;;;;;5034521;28;20053;-71
2023/06/20 11:46:00;;;;;;;7.68;5.45;;;28.80;99.90;;;;;;5051111;28;20406;-70
2023/06/20 11:48:26;;;;;;;8.27;5.20;;;28.80;99.90;;;;;;5050323;28;20049;-71
2023/06/20 11:50:58;;;;;;;5.65;5.10;;;28.80;99.90;;;;;;5034449;28;20118;-71
2023/06/20 11:53:29;;;;;;;7.75;5.38;;;;;;;;;;5051123;28;20143;-71
2023/06/20 11:56:03;;;;;;;5.45;4.88;;;;;;;;;;5052179;28;20048;-70
2023/06/20 11:58:35;;;;;;;6.05;5.35;;;29.20;99.90;;;;;;5050872;28;20158;-71
2023/06/20 12:01:04;;;;;;;5.97;5.35;;;29.10;99.90;;;;;;5051073;28;20423;-70
2023/06/20 12:03:31;;;;;;;6.70;4.93;;;29.10;99.90;;;;;;5051180;28;20045;-71
2023/06/20 12:05:56;;;;;;;8.35;5.80;;;29.10;99.90;;;;;;5050917;28;20095;-70
2023/06/20 12:08:35;;;;;;;7.60;5.65;;;29.40;99.90;;;;;;5051537;28;20497;-68
2023/06/20 12:11:02;;;;;;;5.88;5.38;;;29.20;99.50;;;;;;5052395;28;20033;-71
2023/06/20 12:13:29;;;;;;;10.43;5.78;;;29.50;99.90;;;;;;5052118;28;20072;-70
2023/06/20 12:15:55;;;;;;;6.25;5.20;;;29.80;99.90;;;;;;5050632;28;20033;-71
2023/06/20 12:18:20;;;;;;;6.45;5.72;;;29.70;99.90;;;;;;5051056;28;20399;-71
2023/06/20 12:20:46;;;;;;;5.82;5.22;;;29.70;99.90;;;;;;5050552;28;20284;-71
2023/06/20 12:23:15;;;;;;;5.72;5.20;;;29.30;99.80;;;;;;5051660;28;20044;-71
2023/06/20 12:25:41;;;;;;;6.00;5.40;;;29.30;99.70;;;;;;5049934;28;20037;-71
2023/06/20 12:28:06;;;;;;;9.77;6.13;;;29.30;99.80;;;;;;5049639;28;20098;-71
2023/06/20 12:30:33;;;;;;;6.85;6.20;;;29.80;99.90;;;;;;5049736;28;20040;-71
2023/06/20 12:33:02;;;;;;;10.27;5.78;;;29.60;99.40;;;;;;5049885;28;20171;-70
2023/06/20 12:35:29;;;;;;;6.10;5.50;;;29.60;99.40;;;;;;5049837;28;20116;-70
2023/06/20 12:37:54;;;;;;;6.80;6.13;;;30.10;99.60;;;;;;5051327;28;20037;-71
2023/06/20 12:40:20;;;;;;;15.88;6.10;;;29.70;99.80;;;;;;5053597;28;20048;-70
2023/06/20 12:42:46;;;;;;;16.63;6.65;;;29.60;99.60;;;;;;5053840;28;20048;-70
2023/06/20 12:45:11;;;;;;;6.78;5.68;;;29.50;99.70;;;;;;5053581;28;20041;-71
2023/06/20 12:47:38;;;;;;;8.00;6.25;;;29.80;99.90;;;;;;5053185;28;20087;-71